Time;durP1;ratioP1;P1;durP2;ratioP2;P2;SDS_P1;SDS_P2;PMS_P1;PMS_P2;Temp;Humidity;BMP_temperature;BMP_pressure;BME280_temperature;BME280_humidity;BME280_pressure;Samples;Min_cycle;Max_cycle;Signal;HPM_P1;HPM_P2
2022/05/20 00:00:13;;;;;;;14.50;13.33;;;;;;;17.53;95.41;100778.81;5071147;28;20263;-80
2022/05/20 00:02:39;;;;;;;16.43;15.33;;;;;;;17.28;96.43;100766.63;5074786;28;20212;-79
2022/05/20 00:05:06;;;;;;;18.10;16.43;;;;;;;17.30;97.23;100753.38;5067903;28;20212;-80
2022/05/20 00:07:33;;;;;;;17.50;16.00;;;;;;;17.32;97.19;100762.09;5055730;28;20252;-80
2022/05/20 00:09:59;;;;;;;17.53;16.20;;;;;;;17.19;97.73;100754.69;5040889;28;20740;-80
2022/05/20 00:12:25;;;;;;;19.80;18.37;;;;;;;17.16;98.13;100752.19;5058334;28;20216;-79
2022/05/20 00:14:53;;;;;;;18.90;17.50;;;;;;;17.13;98.33;100752.31;5058496;28;20211;-80
2022/05/20 00:17:19;;;;;;;17.77;16.00;;;;;;;17.26;98.03;100758.81;5057634;28;20261;-80
2022/05/20 00:19:46;;;;;;;18.97;17.57;;;;;;;17.18;98.04;100757.41;5057531;28;20788;-81
2022/05/20 00:22:12;;;;;;;20.00;18.70;;;;;;;17.13;97.86;100762.88;5058197;28;20216;-80
2022/05/20 00:25:45;;;;;;;21.63;19.47;;;;;;;17.19;97.42;100769.69;5055076;28;20206;-80
2022/05/20 00:27:25;;;;;;;22.17;20.47;;;;;;;17.05;97.67;100759.69;5041649;28;20255;-80
2022/05/20 00:29:53;;;;;;;20.97;19.47;;;;;;;17.11;97.52;100758.59;5059054;28;20208;-78
2022/05/20 00:32:20;;;;;;;21.60;20.10;;;;;;;16.97;97.82;100774.97;5066266;28;20203;-78
2022/05/20 00:34:46;;;;;;;22.50;20.33;;;;;;;16.98;97.99;100774.03;5067369;28;20233;-78
2022/05/20 00:37:12;;;;;;;21.60;19.87;;;;;;;17.00;97.44;100780.97;5066476;28;20258;-78
2022/05/20 00:39:39;;;;;;;21.83;20.13;;;;;;;17.12;96.92;100794.56;5063593;28;20254;-81
2022/05/20 00:42:12;;;;;;;21.73;20.30;;;;;;;17.05;96.80;100802.75;5059315;28;20203;-81
2022/05/20 00:44:39;;;;;;;22.30;20.70;;;;;;;17.14;96.42;100806.78;5058569;28;20678;-80
2022/05/20 00:47:06;;;;;;;19.73;18.27;;;;;;;17.26;95.67;100822.13;5057681;28;20703;-81
2022/05/20 00:49:34;;;;;;;20.23;18.90;;;;;;;17.38;94.55;100857.72;5057826;28;20204;-79
2022/05/20 00:52:02;;;;;;;21.70;20.03;;;;;;;17.23;94.75;100859.19;5058516;28;20257;-82
2022/05/20 00:54:34;;;;;;;20.97;19.57;;;;;;;17.11;95.48;100845.63;5056334;28;20245;-80
2022/05/20 00:57:06;;;;;;;22.03;20.53;;;;;;;17.00;96.42;100831.06;5030834;28;20605;-82
2022/05/20 00:59:35;;;;;;;22.77;20.97;;;;;;;17.17;96.04;100816.38;5017929;28;20236;-80
2022/05/20 01:02:07;;;;;;;22.50;20.80;;;;;;;17.05;95.92;100828.25;5018267;28;20225;-81
2022/05/20 01:04:36;;;;;;;24.57;22.77;;;;;;;16.83;96.75;100809.78;5018626;28;20623;-82
2022/05/20 01:07:03;;;;;;;25.47;23.53;;;;;;;16.79;97.76;100789.72;5018040;28;20216;-81
2022/05/20 01:09:30;;;;;;;26.87;24.13;;;;;;;16.89;97.19;100799.00;5043301;28;20209;-81
2022/05/20 01:11:56;;;;;;;25.87;24.07;;;;;;;16.92;97.25;100800.66;5017858;28;20222;-80
2022/05/20 01:14:25;;;;;;;26.43;24.50;;;;;;;16.80;97.87;100799.31;5017778;28;20272;-81
2022/05/20 01:16:53;;;;;;;24.93;23.03;;;;;;;16.83;97.19;100804.53;5017945;28;20897;-79
2022/05/20 01:19:31;;;;;;;26.00;23.93;;;;;;;16.78;97.12;100809.91;5017211;28;20284;-81
2022/05/20 01:21:58;;;;;;;27.47;25.47;;;;;;;16.70;97.58;100806.72;5018223;28;20212;-81
2022/05/20 01:24:27;;;;;;;27.97;25.87;;;;;;;16.67;97.84;100809.50;5017265;28;20209;-82
2022/05/20 01:26:53;;;;;;;26.30;24.20;;;;;;;16.75;97.68;100817.97;5017678;28;20232;-81
2022/05/20 01:29:20;;;;;;;28.00;25.67;;;;;;;16.70;97.89;100812.00;5017272;28;20206;-82
2022/05/20 01:31:46;;;;;;;25.67;23.77;;;;;;;16.70;98.16;100806.72;5018425;28;20229;-81
2022/05/20 01:34:13;;;;;;;28.30;26.17;;;;;;;16.64;98.36;100813.09;5017241;28;20213;-80
2022/05/20 01:36:39;;;;;;;27.60;25.40;;;;;;;16.62;98.75;100811.44;5017195;28;20622;-80
2022/05/20 01:39:06;;;;;;;28.50;26.43;;;;;;;16.56;99.14;100807.25;5034074;28;20293;-82
2022/05/20 01:41:38;;;;;;;28.80;26.33;;;;;;;16.55;99.63;100794.13;5052940;28;20203;-79
2022/05/20 01:44:10;;;;;;;30.50;27.00;;;;;;;16.59;99.69;100801.00;5056763;28;20215;-81
2022/05/20 01:46:41;;;;;;;29.97;27.27;;;;;;;16.60;99.97;100798.31;5055422;28;20262;-79
2022/05/20 01:49:26;;;;;;;30.73;28.30;;;;;;;16.68;99.57;100803.28;5056209;28;20232;-80
2022/05/20 01:52:09;;;;;;;28.63;26.03;;;;;;;16.63;98.18;100827.19;5055535;28;20208;-79
2022/05/20 01:54:43;;;;;;;28.37;26.03;;;;;;;16.60;98.75;100835.22;5056217;28;20690;-80
2022/05/20 01:57:17;;;;;;;28.07;25.87;;;;;;;16.70;97.93;100848.91;5056562;28;20216;-79
2022/05/20 01:59:48;;;;;;;29.50;26.77;;;;;;;16.60;98.56;100843.13;5052442;28;20710;-81
2022/05/20 02:02:24;;;;;;;29.20;26.90;;;;;;;16.41;99.07;100832.41;5037090;28;20221;-81
2022/05/20 02:04:56;;;;;;;29.47;27.10;;;;;;;16.24;99.41;100825.13;5015959;28;20679;-82
2022/05/20 02:07:28;;;;;;;30.10;27.43;;;;;;;16.21;99.69;100816.47;5017652;28;20229;-82
2022/05/20 02:09:59;;;;;;;29.37;26.70;;;;;;;16.02;99.78;100821.53;5038775;28;20206;-80
2022/05/20 02:12:29;;;;;;;30.10;27.37;;;;;;;15.87;99.87;100821.16;5056517;28;20253;-80
2022/05/20 02:15:01;;;;;;;30.07;27.60;;;;;;;15.72;100.00;100821.66;5056070;28;20233;-79
2022/05/20 02:17:33;;;;;;;31.13;27.73;;;;;;;15.64;100.00;100821.94;5055919;28;20257;-81
2022/05/20 02:20:04;;;;;;;31.07;27.90;;;;;;;15.60;99.99;100825.56;5055403;28;20223;-80
2022/05/20 02:22:34;;;;;;;30.13;27.53;;;;;;;15.56;99.82;100834.47;5052687;28;20200;-80
2022/05/20 02:25:02;;;;;;;31.73;28.70;;;;;;;15.56;99.89;100830.97;5039134;28;20198;-78
2022/05/20 02:27:33;;;;;;;32.30;29.07;;;;;;;15.56;99.74;100838.88;5055641;28;20258;-79
2022/05/20 02:30:04;;;;;;;30.47;27.63;;;;;;;15.51;99.54;100836.41;5054935;28;20218;-79
2022/05/20 02:32:34;;;;;;;32.67;29.37;;;;;;;15.52;99.68;100834.63;5055818;28;20734;-80
2022/05/20 02:35:01;;;;;;;29.90;27.40;;;;;;;15.39;99.72;100842.06;5055812;28;20202;-81
2022/05/20 02:37:30;;;;;;;30.97;27.87;;;;;;;15.33;99.95;100834.38;5055278;28;20281;-80
2022/05/20 02:39:57;;;;;;;32.40;29.17;;;;;;;15.29;100.00;100836.25;5055128;28;20727;-81
2022/05/20 02:42:26;;;;;;;31.90;28.93;;;;;;;15.21;100.00;100823.31;5055700;28;20629;-81
2022/05/20 02:44:55;;;;;;;33.30;29.90;;;;;;;15.07;100.00;100813.25;5054145;28;20728;-78
2022/05/20 02:47:22;;;;;;;32.83;29.37;;;;;;;15.03;100.00;100813.41;5055948;28;20264;-80
2022/05/20 02:49:48;;;;;;;35.47;30.67;;;;;;;14.97;100.00;100806.56;5054950;28;20206;-80
2022/05/20 02:52:14;;;;;;;33.80;30.03;;;;;;;15.06;100.00;100810.66;5053151;28;20209;-80
2022/05/20 02:54:41;;;;;;;32.17;28.87;;;;;;;15.08;100.00;100840.41;5038356;28;20233;-81
2022/05/20 02:57:07;;;;;;;31.93;28.73;;;;;;;14.98;100.00;100841.59;5055430;28;20206;-78
2022/05/20 03:05:03;;;;;;;33.57;30.10;;;;;;;14.95;100.00;100862.72;5055879;28;20216;-81
2022/05/20 03:07:29;;;;;;;37.40;28.97;;;;;;;14.88;100.00;100868.19;5052363;28;20227;-80
2022/05/20 03:09:56;;;;;;;34.97;29.13;;;;;;;14.85;100.00;100862.16;5037538;28;20194;-81
2022/05/20 03:12:22;;;;;;;31.27;28.03;;;;;;;14.83;100.00;100872.69;5054961;28;20265;-80
2022/05/20 03:14:48;;;;;;;29.17;26.27;;;;;;;14.96;100.00;100880.22;5055398;28;20209;-82
2022/05/20 03:17:15;;;;;;;32.70;25.70;;;;;;;15.04;99.90;100899.25;5054043;28;20600;-81
2022/05/20 03:19:42;;;;;;;28.97;25.93;;;;;;;15.01;99.65;100907.25;5053785;28;20315;-81
2022/05/20 03:22:09;;;;;;;28.37;25.27;;;;;;;14.91;99.66;100916.31;5054297;28;20232;-79
2022/05/20 03:24:37;;;;;;;29.80;26.60;;;;;;;14.92;99.54;100924.13;5054207;28;20350;-80
2022/05/20 03:27:04;;;;;;;31.97;28.20;;;;;;;14.86;99.38;100919.06;5054393;28;20243;-81
2022/05/20 03:29:32;;;;;;;29.53;26.53;;;;;;;14.85;99.53;100930.50;5054068;28;20220;-81
2022/05/20 03:31:59;;;;;;;26.03;23.43;;;;;;;14.76;98.13;100952.63;5054701;28;20742;-80
2022/05/20 03:34:25;;;;;;;26.37;23.97;;;;;;;14.74;97.78;100962.31;5054870;28;20201;-79
2022/05/20 03:36:53;;;;;;;26.83;24.30;;;;;;;14.77;97.22;100982.41;5056205;28;20205;-81
2022/05/20 03:39:22;;;;;;;25.10;23.00;;;;;;;14.62;96.59;100994.19;5039971;28;20713;-81
2022/05/20 03:41:49;;;;;;;26.17;23.67;;;;;;;14.64;96.28;100997.63;5018769;28;20214;-81
2022/05/20 03:44:16;;;;;;;27.53;24.20;;;;;;;14.44;96.81;100988.47;5018881;28;20672;-82
2022/05/20 03:46:45;;;;;;;27.37;24.73;;;;;;;14.37;97.26;100984.31;5018277;28;20682;-81
2022/05/20 03:49:12;;;;;;;28.20;25.23;;;;;;;14.39;97.83;100974.63;5017920;28;20232;-82
2022/05/20 03:51:38;;;;;;;28.07;25.23;;;;;;;14.43;97.33;100972.75;5019342;28;20213;-80
2022/05/20 03:54:06;;;;;;;27.27;24.60;;;;;;;14.41;97.56;100972.81;5018503;28;20294;-82
2022/05/20 03:56:33;;;;;;;25.77;23.47;;;;;;;14.57;97.35;100990.81;5019194;28;20237;-80
2022/05/20 03:58:59;;;;;;;25.67;23.27;;;;;;;14.56;96.96;100992.56;5018192;28;20269;-81
2022/05/20 04:04:10;;;;;;;26.83;24.50;;;;;;;14.39;98.14;100984.22;5045726;28;20290;-81
2022/05/20 04:06:37;;;;;;;28.23;25.27;;;;;;;14.41;97.37;100980.69;5058455;28;20198;-80
2022/05/20 04:09:06;;;;;;;26.13;23.73;;;;;;;14.46;97.38;100988.44;5057751;28;20244;-79
2022/05/20 04:11:32;;;;;;;25.97;23.40;;;;;;;14.47;96.94;100992.81;5045921;28;20700;-79
2022/05/20 04:13:59;;;;;;;26.67;23.93;;;;;;;14.45;96.96;101000.72;5045011;28;20702;-80
2022/05/20 04:16:25;;;;;;;26.20;24.03;;;;;;;14.51;97.32;101004.97;5059109;28;20214;-81
2022/05/20 04:18:51;;;;;;;26.77;24.03;;;;;;;14.51;96.18;101015.47;5057975;28;20283;-82
2022/05/20 04:21:18;;;;;;;26.57;23.90;;;;;;;14.49;96.52;101022.53;5058583;28;20769;-81
2022/05/20 04:23:44;;;;;;;24.87;22.50;;;;;;;14.56;96.51;101020.59;5057899;28;20261;-81
2022/05/20 04:26:12;;;;;;;25.40;22.93;;;;;;;14.60;95.76;101043.28;5057582;28;20742;-81
2022/05/20 04:28:39;;;;;;;23.30;21.33;;;;;;;14.78;96.09;101042.78;5057212;28;20226;-78
2022/05/20 04:31:08;;;;;;;23.37;21.50;;;;;;;14.88;95.02;101060.06;5057529;28;20205;-80
2022/05/20 04:33:35;;;;;;;23.50;21.67;;;;;;;15.02;94.75;101069.31;5057766;28;20265;-80
2022/05/20 04:36:01;;;;;;;22.93;20.87;;;;;;;15.09;94.09;101094.56;5057347;28;20207;-81
2022/05/20 04:38:28;;;;;;;23.33;21.23;;;;;;;15.00;93.82;101110.56;5057601;28;20284;-79
2022/05/20 04:49:09;;;;;;;26.07;23.30;;;;;;;14.55;94.91;101074.91;5055834;28;20299;-80
2022/05/20 04:51:37;;;;;;;24.37;22.40;;;;;;;14.52;95.81;101039.97;5058395;28;20201;-81
2022/05/20 04:56:49;;;;;;;24.77;22.67;;;;;;;14.52;96.58;101014.53;5057162;28;20257;-82
2022/05/20 04:59:17;;;;;;;26.63;24.17;;;;;;;14.58;96.87;101009.16;5056707;28;20606;-81
2022/05/20 05:01:44;;;;;;;26.90;24.23;;;;;;;14.82;96.48;101026.03;5057834;28;20226;-80
2022/05/20 05:04:11;;;;;;;25.53;23.17;;;;;;;14.80;96.79;101017.31;5057742;28;20256;-82
2022/05/20 05:06:37;;;;;;;25.53;23.13;;;;;;;14.68;95.53;101036.91;5057495;28;20210;-82
2022/05/20 05:09:04;;;;;;;23.70;21.47;;;;;;;14.86;95.02;101064.47;5057153;28;20273;-81
2022/05/20 05:11:31;;;;;;;21.80;20.00;;;;;;;14.72;94.55;101079.75;5046111;28;20203;-82
2022/05/20 05:13:58;;;;;;;21.53;19.90;;;;;;;14.64;94.64;101081.72;5043893;28;20202;-81
2022/05/20 05:16:26;;;;;;;21.47;19.57;;;;;;;14.69;93.71;101093.84;5058121;28;20206;-81
2022/05/20 05:18:52;;;;;;;21.33;19.17;;;;;;;14.60;93.93;101091.44;5056212;28;20225;-82
2022/05/20 05:21:19;;;;;;;20.53;18.73;;;;;;;14.80;93.37;101098.81;5056393;28;20229;-81
2022/05/20 05:23:45;;;;;;;19.27;17.63;;;;;;;14.95;92.43;101121.22;5040426;28;20259;-82
2022/05/20 05:26:13;;;;;;;18.43;17.00;;;;;;;15.02;92.52;101133.28;5057854;28;20211;-82
2022/05/20 05:28:40;;;;;;;16.80;15.70;;;;;;;15.18;90.68;101154.81;5056734;28;20237;-81
2022/05/20 05:31:06;;;;;;;16.23;14.83;;;;;;;15.23;89.42;101204.63;5057301;28;20209;-82
2022/05/20 05:33:34;;;;;;;16.13;14.63;;;;;;;15.19;87.98;101251.19;5057520;28;20275;-82
2022/05/20 05:36:00;;;;;;;15.60;14.20;;;;;;;15.28;87.06;101273.75;5072839;28;20194;-81
2022/05/20 05:38:26;;;;;;;15.83;14.63;;;;;;;15.26;87.25;101276.44;5064516;28;20234;-81
2022/05/20 05:40:53;;;;;;;15.57;14.40;;;;;;;15.23;86.80;101288.81;5055852;28;20221;-81
2022/05/20 05:43:19;;;;;;;14.87;13.53;;;;;;;15.38;85.77;101312.09;5056398;28;20206;-81
2022/05/20 05:45:46;;;;;;;14.40;13.50;;;;;;;15.40;84.79;101331.34;5055645;28;20681;-81
2022/05/20 05:48:15;;;;;;;15.13;13.90;;;;;;;15.46;84.91;101336.47;5056266;28;20226;-81
2022/05/20 05:50:43;;;;;;;14.73;13.53;;;;;;;15.39;84.13;101345.41;5055454;28;20688;-81
2022/05/20 05:53:11;;;;;;;14.63;13.53;;;;;;;15.33;84.60;101353.44;5039556;28;20717;-81
2022/05/20 05:55:38;;;;;;;15.03;13.93;;;;;;;15.29;84.66;101338.63;5056171;28;20211;-80
2022/05/20 05:58:05;;;;;;;15.87;14.67;;;;;;;15.22;84.45;101348.44;5055947;28;20229;-82
2022/05/20 06:00:32;;;;;;;15.87;14.53;;;;;;;15.36;84.78;101332.34;5055382;28;20639;-82
2022/05/20 06:02:58;;;;;;;17.97;16.53;;;;;;;15.37;84.16;101352.47;5056287;28;20261;-82
2022/05/20 06:05:24;;;;;;;16.30;15.00;;;;;;;15.36;84.69;101344.59;5057035;28;20239;-81
2022/05/20 06:07:52;;;;;;;16.53;15.20;;;;;;;15.33;84.37;101337.66;5061394;28;20320;-79
2022/05/20 06:10:19;;;;;;;18.57;16.97;;;;;;;15.26;84.29;101339.59;5054917;28;20229;-78
2022/05/20 06:12:46;;;;;;;17.50;16.00;;;;;;;15.27;84.28;101341.28;5040110;28;20252;-78
2022/05/20 06:15:15;;;;;;;19.07;17.57;;;;;;;15.27;84.22;101340.44;5065066;28;20268;-79
2022/05/20 06:17:42;;;;;;;18.17;16.77;;;;;;;15.42;84.13;101336.56;5057170;28;20226;-79
2022/05/20 06:20:09;;;;;;;19.57;17.90;;;;;;;15.45;82.92;101366.28;5055303;28;20235;-81
2022/05/20 06:22:36;;;;;;;18.33;16.83;;;;;;;15.37;83.67;101355.09;5053858;28;20259;-81
2022/05/20 06:25:05;;;;;;;18.97;17.40;;;;;;;15.47;83.71;101348.69;5037919;28;20199;-81
2022/05/20 06:27:32;;;;;;;18.43;17.13;;;;;;;15.59;83.81;101346.66;5052098;28;20296;-81
2022/05/20 06:29:59;;;;;;;18.57;16.93;;;;;;;15.55;83.72;101343.25;5054569;28;20558;-81
2022/05/20 06:32:25;;;;;;;18.27;16.87;;;;;;;15.65;82.64;101372.84;5055609;28;20211;-81
2022/05/20 06:40:22;;;;;;;17.97;16.33;;;;;;;15.63;81.57;101404.44;5054862;28;20351;-80
2022/05/20 06:42:49;;;;;;;17.97;16.57;;;;;;;15.70;82.36;101376.22;5055321;28;20573;-81
2022/05/20 06:45:17;;;;;;;17.27;16.07;;;;;;;15.71;81.85;101374.44;5054064;28;20214;-81
2022/05/20 06:47:44;;;;;;;18.37;16.97;;;;;;;15.74;81.74;101379.66;5055907;28;20223;-80
2022/05/20 06:50:12;;;;;;;18.37;16.97;;;;;;;15.74;80.83;101400.72;5054362;28;20201;-81
2022/05/20 06:52:39;;;;;;;18.57;17.00;;;;;;;15.82;80.87;101397.00;5053680;28;20683;-81
2022/05/20 06:55:07;;;;;;;18.03;16.80;;;;;;;15.79;80.02;101422.53;5037138;28;20197;-80
2022/05/20 06:57:38;;;;;;;18.07;16.57;;;;;;;15.87;80.20;101417.94;5052366;28;20271;-81
2022/05/20 07:00:06;;;;;;;18.93;17.33;;;;;;;15.75;79.72;101428.78;5054420;28;20203;-80
2022/05/20 07:02:32;;;;;;;17.40;16.00;;;;;;;15.92;78.76;101449.44;5055231;28;20227;-80
2022/05/20 07:04:59;;;;;;;17.63;16.27;;;;;;;15.96;80.11;101430.03;5055369;28;20210;-79
2022/05/20 07:07:26;;;;;;;17.70;16.40;;;;;;;15.84;79.36;101431.19;5054991;28;20227;-80
2022/05/20 07:09:52;;;;;;;17.57;16.13;;;;;;;15.96;79.02;101444.06;5049911;28;20266;-80
2022/05/20 07:12:18;;;;;;;17.73;16.33;;;;;;;16.08;78.25;101461.31;5042431;28;20242;-80
2022/05/20 07:14:46;;;;;;;16.97;15.67;;;;;;;16.10;77.71;101463.91;5064311;28;20264;-79
2022/05/20 07:17:16;;;;;;;18.87;17.53;;;;;;;16.13;79.26;101438.34;5063919;28;20227;-80
2022/05/20 07:19:42;;;;;;;17.37;16.03;;;;;;;16.27;78.69;101430.06;5064035;28;20549;-80
2022/05/20 07:22:09;;;;;;;16.03;14.90;;;;;;;16.28;76.39;101498.53;5063697;28;20227;-79
2022/05/20 07:24:35;;;;;;;17.53;16.13;;;;;;;16.35;77.94;101479.94;5063840;28;20216;-79
2022/05/20 07:27:01;;;;;;;15.93;14.63;;;;;;;16.47;77.22;101464.69;5064524;28;20612;-80
2022/05/20 07:29:28;;;;;;;17.57;16.17;;;;;;;16.48;75.15;101510.34;5063530;28;20237;-80
2022/05/20 07:31:55;;;;;;;17.53;16.13;;;;;;;16.30;76.45;101506.41;5063829;28;20203;-80
2022/05/20 07:34:22;;;;;;;18.30;16.80;;;;;;;16.17;77.13;101478.63;5063735;28;20617;-80
2022/05/20 07:36:48;;;;;;;16.10;14.90;;;;;;;16.34;77.22;101460.63;5063519;28;20671;-81
2022/05/20 07:39:14;;;;;;;16.90;15.47;;;;;;;16.54;76.29;101473.28;5062158;28;20249;-81
2022/05/20 07:41:41;;;;;;;17.93;16.40;;;;;;;16.63;75.67;101494.13;5050285;28;20241;-80
2022/05/20 07:44:07;;;;;;;17.03;15.73;;;;;;;16.76;75.08;101510.44;5052565;28;20559;-79
2022/05/20 07:46:34;;;;;;;15.57;14.13;;;;;;;16.85;75.34;101507.59;5062014;28;20203;-79
2022/05/20 07:49:01;;;;;;;16.90;15.57;;;;;;;16.68;73.87;101546.72;5061986;28;20714;-80
2022/05/20 07:51:30;;;;;;;15.47;14.47;;;;;;;16.82;73.79;101547.22;5063829;28;20203;-79
2022/05/20 07:54:03;;;;;;;15.70;14.50;;;;;;;16.91;73.57;101546.13;5063662;28;20203;-80
2022/05/20 07:56:33;;;;;;;15.90;14.80;;;;;;;16.97;73.73;101548.59;5062115;28;20207;-80
2022/05/20 07:59:03;;;;;;;16.27;14.90;;;;;;;16.70;74.75;101518.53;5062759;28;20232;-80
2022/05/20 08:01:33;;;;;;;16.67;15.47;;;;;;;16.78;73.66;101531.50;5055890;28;20223;-79
2022/05/20 08:06:48;;;;;;;16.33;14.93;;;;;;;16.41;75.70;101453.41;5063316;28;20202;-79
2022/05/20 08:09:15;;;;;;;17.93;16.63;;;;;;;16.46;76.18;101441.00;5062388;28;20255;-81
2022/05/20 08:11:42;;;;;;;16.83;15.57;;;;;;;16.68;75.13;101433.34;5047521;28;20205;-80
2022/05/20 08:14:09;;;;;;;16.30;14.77;;;;;;;16.84;74.87;101460.16;5052173;28;20207;-78
2022/05/20 08:16:35;;;;;;;15.63;14.43;;;;;;;16.92;74.33;101474.00;5063141;28;20234;-80
2022/05/20 08:19:03;;;;;;;15.80;14.50;;;;;;;17.06;73.93;101490.28;5061970;28;20224;-80
2022/05/20 08:21:30;;;;;;;14.60;13.53;;;;;;;17.22;72.79;101510.94;5062616;28;20617;-80
2022/05/20 08:23:56;;;;;;;14.47;13.43;;;;;;;17.31;72.07;101539.72;5060470;28;20272;-80
2022/05/20 08:26:22;;;;;;;16.57;15.07;;;;;;;17.40;72.16;101552.66;5060041;28;20204;-79
2022/05/20 08:28:49;;;;;;;14.87;13.80;;;;;;;17.46;72.80;101510.22;5059617;28;20227;-78
2022/05/20 08:31:16;;;;;;;14.47;13.37;;;;;;;17.59;72.45;101520.41;5059244;28;20211;-80
2022/05/20 08:33:43;;;;;;;12.60;11.73;;;;;;;17.70;72.74;101510.38;5058533;28;20212;-80
2022/05/20 08:36:11;;;;;;;13.30;12.37;;;;;;;17.81;71.91;101521.44;5058575;28;20213;-79
2022/05/20 08:38:37;;;;;;;13.77;12.87;;;;;;;17.93;72.35;101508.81;5057911;28;20239;-77
2022/05/20 08:41:04;;;;;;;12.90;12.00;;;;;;;17.95;71.54;101514.91;5049652;28;20649;-78
2022/05/20 08:43:33;;;;;;;14.40;13.33;;;;;;;17.90;70.60;101570.53;5042237;28;20212;-80
2022/05/20 08:46:01;;;;;;;15.17;14.00;;;;;;;17.89;69.61;101578.50;5057113;28;20234;-80
2022/05/20 08:48:28;;;;;;;15.73;14.50;;;;;;;17.62;72.11;101534.38;5057999;28;20238;-80
2022/05/20 08:50:57;;;;;;;16.03;14.77;;;;;;;17.56;70.98;101518.75;5057070;28;20208;-79
2022/05/20 08:53:29;;;;;;;15.43;14.17;;;;;;;17.72;72.16;101492.72;5057842;28;20217;-78
2022/05/20 08:55:58;;;;;;;14.77;13.77;;;;;;;17.82;71.47;101517.91;5058342;28;20207;-80
2022/05/20 08:58:25;;;;;;;14.80;13.70;;;;;;;17.74;70.91;101541.06;5058262;28;20780;-81
2022/05/20 09:00:51;;;;;;;14.00;13.00;;;;;;;17.69;70.80;101535.06;5057297;28;20294;-79
2022/05/20 09:03:18;;;;;;;15.87;14.77;;;;;;;17.86;71.15;101521.38;5057164;28;20212;-78
2022/05/20 09:05:46;;;;;;;16.50;15.30;;;;;;;17.75;71.40;101539.28;5057893;28;20246;-81
2022/05/20 09:08:26;;;;;;;15.33;14.27;;;;;;;17.79;71.19;101518.00;5051171;28;20231;-78
2022/05/20 09:10:54;;;;;;;16.70;15.23;;;;;;;17.96;70.89;101509.59;5029283;28;20205;-78
2022/05/20 09:13:23;;;;;;;17.00;15.70;;;;;;;17.97;70.89;101524.50;5037727;28;20300;-78
2022/05/20 09:16:00;;;;;;;15.67;14.57;;;;;;;18.06;70.50;101523.34;5037633;28;20209;-80
2022/05/20 09:18:39;;;;;;;15.63;14.50;;;;;;;18.17;70.42;101515.06;5037592;28;20718;-80
2022/05/20 09:21:07;;;;;;;16.87;15.57;;;;;;;18.06;70.52;101513.63;5037587;28;20244;-79
2022/05/20 09:23:51;;;;;;;14.37;13.37;;;;;;;18.03;68.92;101540.16;5037743;28;20213;-79
2022/05/20 09:26:23;;;;;;;16.03;14.93;;;;;;;18.03;70.88;101483.81;5037190;28;20316;-80
2022/05/20 09:28:53;;;;;;;16.30;15.13;;;;;;;18.20;69.78;101501.75;5036585;28;20757;-79
2022/05/20 09:31:24;;;;;;;16.63;15.43;;;;;;;18.05;70.89;101472.25;5037151;28;20262;-80
2022/05/20 09:33:54;;;;;;;16.90;15.60;;;;;;;18.07;71.83;101429.94;5036734;28;20212;-80
2022/05/20 09:36:39;;;;;;;16.70;15.60;;;;;;;18.17;71.13;101435.78;5036589;28;20738;-80
2022/05/20 09:39:15;;;;;;;17.27;15.80;;;;;;;18.19;71.89;101399.59;5032384;28;20272;-80
2022/05/20 09:41:50;;;;;;;15.70;14.50;;;;;;;18.44;71.83;101381.94;5055536;28;20235;-80
2022/05/20 09:44:19;;;;;;;16.27;15.07;;;;;;;18.46;71.66;101390.66;5057238;28;20207;-80
2022/05/20 09:46:51;;;;;;;12.97;12.00;;;;;;;18.66;69.83;101436.69;5055609;28;20215;-78
2022/05/20 09:49:23;;;;;;;11.17;10.23;;;;;;;18.61;67.15;101545.28;5056022;28;20223;-79
2022/05/20 09:51:54;;;;;;;14.80;13.90;;;;;;;18.61;69.92;101460.66;5056878;28;20666;-79
2022/05/20 09:54:29;;;;;;;11.97;10.90;;;;;;;18.83;68.91;101457.25;5057094;28;20303;-80
2022/05/20 09:57:05;;;;;;;11.23;10.43;;;;;;;19.04;69.40;101413.22;5055924;28;20223;-80
2022/05/20 09:59:40;;;;;;;10.63;9.93;;;;;;;19.21;67.41;101471.69;5055513;28;20212;-79
2022/05/20 10:02:21;;;;;;;9.77;9.07;;;;;;;19.33;65.76;101543.63;5056893;28;20612;-79
2022/05/20 10:04:57;;;;;;;8.67;7.80;;;;;;;19.45;64.78;101589.03;5056203;28;20227;-80
2022/05/20 10:07:35;;;;;;;10.97;10.17;;;;;;;19.58;66.54;101520.56;5050361;28;20233;-80
2022/05/20 10:10:09;;;;;;;8.73;8.17;;;;;;;19.76;66.25;101495.16;5038879;28;20616;-80
2022/05/20 10:12:38;;;;;;;7.73;7.13;;;;;;;19.93;68.20;101432.66;5057031;28;20621;-80
2022/05/20 10:15:13;;;;;;;8.43;6.93;;;;;;;20.10;67.38;101490.22;5056053;28;20207;-80
2022/05/20 10:17:52;;;;;;;8.33;7.73;;;;;;;20.29;67.22;101416.09;5055859;28;20224;-80
2022/05/20 10:20:25;;;;;;;6.43;6.03;;;;;;;20.46;67.70;101412.69;5055126;28;20206;-80
2022/05/20 10:23:01;;;;;;;6.17;5.67;;;;;;;20.54;61.52;101590.94;5040637;28;20223;-80
2022/05/20 10:25:35;;;;;;;6.67;6.10;;;;;;;20.68;62.17;101585.09;5050611;28;20202;-80
2022/05/20 10:28:06;;;;;;;5.87;5.27;;;;;;;20.79;62.97;101570.44;5055837;28;20228;-79
2022/05/20 10:33:27;;;;;;;5.53;5.03;;;;;;;21.10;60.71;101626.59;5055632;28;20717;-79
2022/05/20 10:36:07;;;;;;;4.53;4.00;;;;;;;21.31;60.44;101619.50;5055226;28;20213;-79
2022/05/20 10:38:58;;;;;;;3.63;3.33;;;;;;;21.30;56.54;101742.59;5054915;28;20298;-79
2022/05/20 10:41:40;;;;;;;3.70;3.40;;;;;;;21.22;58.27;101734.94;5055404;28;20239;-78
2022/05/20 10:50:15;;;;;;;3.07;2.83;;;;;;;21.09;57.02;101733.72;5054532;28;20207;-79
2022/05/20 10:52:54;;;;;;;2.90;2.70;;;;;;;21.30;57.26;101702.75;5043389;28;20203;-79
2022/05/20 10:55:31;;;;;;;4.67;4.27;;;;;;;20.76;53.85;101774.88;5047713;28;20201;-79
2022/05/20 10:58:12;;;;;;;4.40;4.03;;;;;;;20.99;55.13;101743.88;5055184;28;20232;-79
2022/05/20 11:00:47;;;;;;;4.90;4.50;;;;;;;20.93;53.60;101778.63;5054074;28;20218;-79
2022/05/20 11:03:26;;;;;;;4.23;3.93;;;;;;;20.96;55.44;101757.28;5055113;28;20224;-79
2022/05/20 11:06:26;;;;;;;4.90;4.50;;;;;;;21.26;54.94;101728.56;5055656;28;20216;-79
2022/05/20 11:09:03;;;;;;;4.50;4.13;;;;;;;21.45;54.49;101759.66;4988195;28;20228;-80
2022/05/20 11:11:57;;;;;;;4.13;3.80;;;;;;;21.62;55.22;101751.81;5043369;28;20205;-79
2022/05/20 11:15:08;;;;;;;4.33;4.03;;;;;;;21.76;52.07;101711.34;5048647;28;20259;-79
2022/05/20 11:17:49;;;;;;;4.20;3.90;;;;;;;21.94;54.74;101717.59;4954349;28;20232;-80
2022/05/20 11:20:33;;;;;;;5.80;5.40;;;;;;;22.14;54.47;101744.16;5041840;28;20209;-80
2022/05/20 11:23:21;;;;;;;5.57;5.07;;;;;;;22.02;53.43;101718.13;5055259;28;20233;-80
2022/05/20 11:26:15;;;;;;;5.53;5.13;;;;;;;21.82;53.72;101716.38;5059078;28;20808;-79
2022/05/20 11:28:59;;;;;;;4.87;4.57;;;;;;;22.26;53.96;101678.03;5060862;28;20233;-79
2022/05/20 11:31:43;;;;;;;4.63;4.23;;;;;;;22.86;54.21;101665.28;5061349;28;20557;-78
2022/05/20 11:34:29;;;;;;;5.80;5.50;;;;;;;23.06;51.90;101700.72;5056700;28;20689;-79
2022/05/20 11:37:08;;;;;;;5.80;5.20;;;;;;;23.25;51.73;101713.94;5025648;28;20209;-79
2022/05/20 11:39:52;;;;;;;4.80;4.50;;;;;;;23.83;52.32;101652.22;5026428;28;20275;-79
2022/05/20 11:42:28;;;;;;;6.73;6.17;;;;;;;23.48;50.45;101712.75;5029561;28;20648;-79
2022/05/20 11:45:10;;;;;;;5.80;5.40;;;;;;;24.15;50.88;101714.44;5025580;28;20202;-78
2022/05/20 11:48:10;;;;;;;5.60;5.20;;;;;;;23.99;50.80;101698.44;5025441;28;20227;-80
2022/05/20 11:50:55;;;;;;;5.47;4.90;;;;;;;23.94;52.52;101656.97;5024876;28;20211;-79
2022/05/20 11:53:27;;;;;;;4.77;4.47;;;;;;;24.01;51.32;101654.81;5024570;28;20281;-79
2022/05/20 11:55:58;;;;;;;4.30;4.00;;;;;;;25.40;51.94;101591.44;5024470;28;20246;-80
2022/05/20 11:58:33;;;;;;;5.13;4.73;;;;;;;26.70;46.30;101678.47;5030423;28;20298;-80
2022/05/20 12:01:00;;;;;;;5.00;4.70;;;;;;;27.60;45.56;101784.03;5030082;28;20654;-80